sensor_id;sensor_type;location;lat;lon;timestamp;pressure;altitude;pressure_sealevel;temperature;humidity
74613;BME280;63119;51.788;8.824;2023-09-19T00:00:59;99179.69;;;17.96;81.29
74613;BME280;63119;51.788;8.824;2023-09-19T00:03:24;99180.22;;;17.92;81.02
74613;BME280;63119;51.788;8.824;2023-09-19T00:05:50;99191.47;;;17.79;81.76
74613;BME280;63119;51.788;8.824;2023-09-19T00:08:16;99188.97;;;17.78;81.59
74613;BME280;63119;51.788;8.824;2023-09-19T00:10:42;99190.28;;;17.82;81.43
74613;BME280;63119;51.788;8.824;2023-09-19T00:13:08;99192.28;;;17.80;81.60
74613;BME280;63119;51.788;8.824;2023-09-19T00:15:39;99195.00;;;17.72;81.71
74613;BME280;63119;51.788;8.824;2023-09-19T00:18:06;99189.47;;;17.65;82.02
74613;BME280;63119;51.788;8.824;2023-09-19T00:20:32;99200.16;;;17.65;81.78
74613;BME280;63119;51.788;8.824;2023-09-19T00:22:57;99194.00;;;17.57;82.37
74613;BME280;63119;51.788;8.824;2023-09-19T00:25:24;99196.66;;;17.57;82.16
74613;BME280;63119;51.788;8.824;2023-09-19T00:27:50;99201.34;;;17.55;82.27
74613;BME280;63119;51.788;8.824;2023-09-19T00:30:17;99202.66;;;17.51;82.14
74613;BME280;63119;51.788;8.824;2023-09-19T00:32:47;99201.81;;;17.50;81.99
74613;BME280;63119;51.788;8.824;2023-09-19T00:35:13;99211.34;;;17.53;81.69
74613;BME280;63119;51.788;8.824;2023-09-19T00:37:40;99214.00;;;17.53;81.72
74613;BME280;63119;51.788;8.824;2023-09-19T00:40:07;99217.69;;;17.52;81.85
74613;BME280;63119;51.788;8.824;2023-09-19T00:42:37;99215.41;;;17.57;82.24
74613;BME280;63119;51.788;8.824;2023-09-19T00:45:03;99220.19;;;17.45;82.19
74613;BME280;63119;51.788;8.824;2023-09-19T00:47:28;99216.38;;;17.56;81.23
74613;BME280;63119;51.788;8.824;2023-09-19T00:49:55;99218.03;;;17.40;81.82
74613;BME280;63119;51.788;8.824;2023-09-19T00:52:20;99217.69;;;17.43;82.26
74613;BME280;63119;51.788;8.824;2023-09-19T00:54:47;99218.72;;;17.51;82.05
74613;BME280;63119;51.788;8.824;2023-09-19T00:57:13;99219.38;;;17.53;81.03
74613;BME280;63119;51.788;8.824;2023-09-19T00:59:40;99226.03;;;17.32;82.39
74613;BME280;63119;51.788;8.824;2023-09-19T01:02:06;99225.03;;;17.49;81.39
74613;BME280;63119;51.788;8.824;2023-09-19T01:04:31;99229.41;;;17.51;81.32
74613;BME280;63119;51.788;8.824;2023-09-19T01:06:57;99223.19;;;17.42;81.73
74613;BME280;63119;51.788;8.824;2023-09-19T01:09:23;99234.72;;;17.34;82.00
74613;BME280;63119;51.788;8.824;2023-09-19T01:11:50;99241.06;;;17.33;82.12
74613;BME280;63119;51.788;8.824;2023-09-19T01:17:24;99239.75;;;17.29;81.87
74613;BME280;63119;51.788;8.824;2023-09-19T01:20:02;99245.25;;;17.20;82.21
74613;BME280;63119;51.788;8.824;2023-09-19T01:22:42;99252.41;;;17.19;81.74
74613;BME280;63119;51.788;8.824;2023-09-19T01:25:29;99251.56;;;17.19;81.46
74613;BME280;63119;51.788;8.824;2023-09-19T01:28:29;99256.25;;;17.17;81.50
74613;BME280;63119;51.788;8.824;2023-09-19T01:30:58;99249.75;;;17.11;80.68
74613;BME280;63119;51.788;8.824;2023-09-19T01:33:26;99251.91;;;17.08;80.54
74613;BME280;63119;51.788;8.824;2023-09-19T01:35:52;99254.84;;;16.97;80.00
74613;BME280;63119;51.788;8.824;2023-09-19T01:38:19;99251.84;;;17.00;79.25
74613;BME280;63119;51.788;8.824;2023-09-19T01:40:54;99256.19;;;16.92;79.80
74613;BME280;63119;51.788;8.824;2023-09-19T01:43:27;99263.72;;;16.97;78.99
74613;BME280;63119;51.788;8.824;2023-09-19T01:51:43;99277.78;;;17.07;78.60
74613;BME280;63119;51.788;8.824;2023-09-19T01:54:12;99278.63;;;17.08;78.51
74613;BME280;63119;51.788;8.824;2023-09-19T01:56:51;99283.53;;;17.28;78.01
74613;BME280;63119;51.788;8.824;2023-09-19T01:59:25;99287.38;;;17.34;78.16
74613;BME280;63119;51.788;8.824;2023-09-19T02:01:56;99289.00;;;17.19;78.52
74613;BME280;63119;51.788;8.824;2023-09-19T02:04:22;99288.50;;;17.15;78.79
74613;BME280;63119;51.788;8.824;2023-09-19T02:06:48;99280.84;;;17.20;78.08
74613;BME280;63119;51.788;8.824;2023-09-19T02:09:14;99293.16;;;17.05;78.94
74613;BME280;63119;51.788;8.824;2023-09-19T02:11:40;99292.78;;;17.00;79.07
74613;BME280;63119;51.788;8.824;2023-09-19T02:14:06;99301.97;;;16.98;77.95
74613;BME280;63119;51.788;8.824;2023-09-19T02:16:34;99299.09;;;16.91;78.57
74613;BME280;63119;51.788;8.824;2023-09-19T02:18:59;99303.13;;;16.95;78.22
74613;BME280;63119;51.788;8.824;2023-09-19T02:21:25;99313.00;;;17.03;77.80
74613;BME280;63119;51.788;8.824;2023-09-19T02:23:50;99313.19;;;17.01;77.47
74613;BME280;63119;51.788;8.824;2023-09-19T02:26:16;99319.03;;;17.05;77.12
74613;BME280;63119;51.788;8.824;2023-09-19T02:28:43;99319.88;;;17.05;77.10
74613;BME280;63119;51.788;8.824;2023-09-19T02:31:11;99325.50;;;16.94;76.95
74613;BME280;63119;51.788;8.824;2023-09-19T02:33:36;99324.19;;;16.98;76.47
74613;BME280;63119;51.788;8.824;2023-09-19T02:36:02;99324.50;;;16.95;76.53
74613;BME280;63119;51.788;8.824;2023-09-19T02:38:30;99322.44;;;16.81;76.83
74613;BME280;63119;51.788;8.824;2023-09-19T02:40:56;99322.44;;;16.81;76.64
74613;BME280;63119;51.788;8.824;2023-09-19T02:43:22;99322.56;;;16.71;76.82
74613;BME280;63119;51.788;8.824;2023-09-19T02:45:48;99329.03;;;16.69;76.67
74613;BME280;63119;51.788;8.824;2023-09-19T02:48:19;99324.44;;;16.79;77.03
74613;BME280;63119;51.788;8.824;2023-09-19T02:50:46;99329.25;;;16.75;76.17
74613;BME280;63119;51.788;8.824;2023-09-19T02:53:11;99334.25;;;16.70;76.53
74613;BME280;63119;51.788;8.824;2023-09-19T02:55:38;99333.16;;;16.81;76.64
74613;BME280;63119;51.788;8.824;2023-09-19T02:58:06;99333.16;;;16.81;76.29
74613;BME280;63119;51.788;8.824;2023-09-19T03:00:33;99334.38;;;16.69;76.65
74613;BME280;63119;51.788;8.824;2023-09-19T03:02:59;99323.53;;;16.62;76.64
74613;BME280;63119;51.788;8.824;2023-09-19T03:05:24;99322.88;;;16.68;76.52
74613;BME280;63119;51.788;8.824;2023-09-19T03:07:51;99327.06;;;16.71;76.53
74613;BME280;63119;51.788;8.824;2023-09-19T03:10:18;99330.19;;;16.66;76.96
74613;BME280;63119;51.788;8.824;2023-09-19T03:12:44;99326.69;;;16.66;76.84
74613;BME280;63119;51.788;8.824;2023-09-19T03:15:09;99327.69;;;16.65;77.05
74613;BME280;63119;51.788;8.824;2023-09-19T03:17:35;99328.34;;;16.59;76.73
74613;BME280;63119;51.788;8.824;2023-09-19T03:20:02;99325.66;;;16.59;76.64
74613;BME280;63119;51.788;8.824;2023-09-19T03:22:27;99341.28;;;16.54;76.70
74613;BME280;63119;51.788;8.824;2023-09-19T03:24:53;99340.78;;;16.50;77.07
74613;BME280;63119;51.788;8.824;2023-09-19T03:27:19;99353.34;;;16.58;76.66
74613;BME280;63119;51.788;8.824;2023-09-19T03:29:45;99346.94;;;16.51;76.34
74613;BME280;63119;51.788;8.824;2023-09-19T03:32:11;99352.69;;;16.56;76.47
74613;BME280;63119;51.788;8.824;2023-09-19T03:34:37;99347.94;;;16.50;76.72
74613;BME280;63119;51.788;8.824;2023-09-19T03:37:07;99351.28;;;16.52;76.60
74613;BME280;63119;51.788;8.824;2023-09-19T03:39:32;99357.00;;;16.57;76.83
74613;BME280;63119;51.788;8.824;2023-09-19T03:41:57;99355.19;;;16.57;76.91
74613;BME280;63119;51.788;8.824;2023-09-19T03:44:23;99358.47;;;16.51;76.50
74613;BME280;63119;51.788;8.824;2023-09-19T03:46:48;99360.25;;;16.42;76.58
74613;BME280;63119;51.788;8.824;2023-09-19T03:49:13;99356.91;;;16.40;76.32
74613;BME280;63119;51.788;8.824;2023-09-19T03:51:38;99356.41;;;16.45;76.23
74613;BME280;63119;51.788;8.824;2023-09-19T03:54:07;99362.28;;;16.49;75.90
74613;BME280;63119;51.788;8.824;2023-09-19T03:56:33;99361.41;;;16.40;76.67
74613;BME280;63119;51.788;8.824;2023-09-19T03:58:59;99357.13;;;16.29;76.49
74613;BME280;63119;51.788;8.824;2023-09-19T04:01:24;99370.88;;;16.34;76.72
74613;BME280;63119;51.788;8.824;2023-09-19T04:03:50;99360.81;;;16.28;76.61
74613;BME280;63119;51.788;8.824;2023-09-19T04:06:17;99367.00;;;16.29;76.23
74613;BME280;63119;51.788;8.824;2023-09-19T04:08:43;99365.44;;;16.26;75.59
74613;BME280;63119;51.788;8.824;2023-09-19T04:11:09;99365.09;;;16.21;76.00
74613;BME280;63119;51.788;8.824;2023-09-19T04:13:35;99363.56;;;16.19;75.88
74613;BME280;63119;51.788;8.824;2023-09-19T04:16:01;99369.28;;;16.24;75.86
74613;BME280;63119;51.788;8.824;2023-09-19T04:18:26;99365.25;;;16.20;75.32
74613;BME280;63119;51.788;8.824;2023-09-19T04:20:52;99363.03;;;16.15;75.04
74613;BME280;63119;51.788;8.824;2023-09-19T04:23:18;99367.84;;;16.12;74.56
74613;BME280;63119;51.788;8.824;2023-09-19T04:25:45;99380.34;;;16.11;74.66
74613;BME280;63119;51.788;8.824;2023-09-19T04:28:11;99367.91;;;16.02;75.06
74613;BME280;63119;51.788;8.824;2023-09-19T04:30:37;99379.66;;;16.09;74.51
74613;BME280;63119;51.788;8.824;2023-09-19T04:33:03;99379.81;;;15.90;74.50
74613;BME280;63119;51.788;8.824;2023-09-19T04:35:28;99374.56;;;15.98;74.32
74613;BME280;63119;51.788;8.824;2023-09-19T04:37:57;99379.00;;;15.90;74.61
74613;BME280;63119;51.788;8.824;2023-09-19T04:40:22;99384.00;;;15.75;74.87
74613;BME280;63119;51.788;8.824;2023-09-19T04:42:58;99374.09;;;15.85;74.15
74613;BME280;63119;51.788;8.824;2023-09-19T04:45:25;99381.16;;;16.47;85.68
74613;BME280;63119;51.788;8.824;2023-09-19T04:47:51;99374.66;;;16.50;73.55
74613;BME280;63119;51.788;8.824;2023-09-19T04:50:16;99377.44;;;16.66;72.17
74613;BME280;63119;51.788;8.824;2023-09-19T04:52:43;99380.75;;;16.60;73.42
74613;BME280;63119;51.788;8.824;2023-09-19T04:55:13;99385.72;;;16.55;71.35
74613;BME280;63119;51.788;8.824;2023-09-19T04:57:51;99402.44;;;16.39;72.93
74613;BME280;63119;51.788;8.824;2023-09-19T05:00:19;99402.28;;;16.58;71.53
74613;BME280;63119;51.788;8.824;2023-09-19T05:02:45;99401.56;;;16.74;71.01
74613;BME280;63119;51.788;8.824;2023-09-19T05:05:11;99410.50;;;16.90;70.16
74613;BME280;63119;51.788;8.824;2023-09-19T05:07:38;99409.63;;;16.56;70.81
74613;BME280;63119;51.788;8.824;2023-09-19T05:10:05;99401.16;;;16.25;71.66
74613;BME280;63119;51.788;8.824;2023-09-19T05:12:32;99398.72;;;16.14;72.02
74613;BME280;63119;51.788;8.824;2023-09-19T05:14:59;99409.81;;;16.02;72.69
74613;BME280;63119;51.788;8.824;2023-09-19T05:17:24;99427.53;;;15.93;72.96
74613;BME280;63119;51.788;8.824;2023-09-19T05:19:50;99428.75;;;15.81;73.59
74613;BME280;63119;51.788;8.824;2023-09-19T05:22:15;99435.22;;;15.78;73.32
74613;BME280;63119;51.788;8.824;2023-09-19T05:24:40;99447.34;;;15.73;73.29
74613;BME280;63119;51.788;8.824;2023-09-19T05:27:05;99444.53;;;15.74;72.98
74613;BME280;63119;51.788;8.824;2023-09-19T05:29:32;99442.47;;;15.68;72.57
74613;BME280;63119;51.788;8.824;2023-09-19T05:31:58;99445.66;;;15.72;72.56
74613;BME280;63119;51.788;8.824;2023-09-19T05:34:24;99446.84;;;15.60;72.82
74613;BME280;63119;51.788;8.824;2023-09-19T05:36:50;99451.66;;;15.56;72.56
74613;BME280;63119;51.788;8.824;2023-09-19T05:39:17;99455.56;;;15.62;71.90
74613;BME280;63119;51.788;8.824;2023-09-19T05:41:42;99446.09;;;15.50;72.53
74613;BME280;63119;51.788;8.824;2023-09-19T05:44:08;99453.06;;;15.51;72.32
74613;BME280;63119;51.788;8.824;2023-09-19T05:46:33;99452.19;;;15.60;71.66
74613;BME280;63119;51.788;8.824;2023-09-19T05:48:59;99463.09;;;15.66;71.66
74613;BME280;63119;51.788;8.824;2023-09-19T05:51:25;99473.44;;;15.79;71.16
74613;BME280;63119;51.788;8.824;2023-09-19T05:53:53;99472.94;;;16.11;69.96
74613;BME280;63119;51.788;8.824;2023-09-19T05:56:19;99467.88;;;16.78;68.24
74613;BME280;63119;51.788;8.824;2023-09-19T05:58:44;99475.44;;;17.42;65.40
74613;BME280;63119;51.788;8.824;2023-09-19T06:01:10;99486.16;;;18.91;59.78
74613;BME280;63119;51.788;8.824;2023-09-19T06:03:35;99482.06;;;19.51;57.39
74613;BME280;63119;51.788;8.824;2023-09-19T06:06:01;99489.16;;;18.39;60.62
74613;BME280;63119;51.788;8.824;2023-09-19T06:08:27;99494.22;;;17.84;61.42
74613;BME280;63119;51.788;8.824;2023-09-19T06:10:53;99490.66;;;17.68;62.45
74613;BME280;63119;51.788;8.824;2023-09-19T06:13:18;99501.34;;;17.68;63.04
74613;BME280;63119;51.788;8.824;2023-09-19T06:15:44;99504.22;;;17.48;63.63
74613;BME280;63119;51.788;8.824;2023-09-19T06:18:12;99505.50;;;17.36;63.65
74613;BME280;63119;51.788;8.824;2023-09-19T06:20:42;99503.13;;;17.25;64.31
74613;BME280;63119;51.788;8.824;2023-09-19T06:23:09;99508.25;;;17.44;63.72
74613;BME280;63119;51.788;8.824;2023-09-19T06:25:35;99507.78;;;17.23;64.28
74613;BME280;63119;51.788;8.824;2023-09-19T06:28:00;99509.97;;;18.94;59.42
74613;BME280;63119;51.788;8.824;2023-09-19T06:30:29;99495.03;;;21.82;50.51
74613;BME280;63119;51.788;8.824;2023-09-19T06:32:56;99497.56;;;23.25;46.74
74613;BME280;63119;51.788;8.824;2023-09-19T06:35:22;99493.44;;;23.57;45.40
74613;BME280;63119;51.788;8.824;2023-09-19T06:37:47;99482.69;;;23.08;46.59
74613;BME280;63119;51.788;8.824;2023-09-19T06:40:13;99494.41;;;22.51;47.67
74613;BME280;63119;51.788;8.824;2023-09-19T06:42:43;99493.91;;;21.17;50.57
74613;BME280;63119;51.788;8.824;2023-09-19T06:45:14;99492.97;;;20.50;53.07
74613;BME280;63119;51.788;8.824;2023-09-19T06:47:48;99494.81;;;19.49;55.02
74613;BME280;63119;51.788;8.824;2023-09-19T06:50:21;99498.44;;;18.93;56.46
74613;BME280;63119;51.788;8.824;2023-09-19T06:52:51;99491.56;;;18.50;58.83
74613;BME280;63119;51.788;8.824;2023-09-19T06:55:19;99494.50;;;18.39;59.17
74613;BME280;63119;51.788;8.824;2023-09-19T06:57:47;99500.72;;;18.24;59.59
74613;BME280;63119;51.788;8.824;2023-09-19T07:00:13;99500.34;;;18.11;59.91
74613;BME280;63119;51.788;8.824;2023-09-19T07:03:03;99505.00;;;17.59;60.68
74613;BME280;63119;51.788;8.824;2023-09-19T07:05:31;99499.88;;;17.73;61.27
74613;BME280;63119;51.788;8.824;2023-09-19T07:07:57;99513.28;;;17.47;62.22
74613;BME280;63119;51.788;8.824;2023-09-19T07:10:24;99506.47;;;17.27;62.97
74613;BME280;63119;51.788;8.824;2023-09-19T07:12:58;99506.88;;;17.40;63.59
74613;BME280;63119;51.788;8.824;2023-09-19T07:15:24;99505.28;;;17.30;62.85
74613;BME280;63119;51.788;8.824;2023-09-19T07:17:50;99513.38;;;17.12;63.90
74613;BME280;63119;51.788;8.824;2023-09-19T07:20:16;99510.03;;;17.10;64.20
74613;BME280;63119;51.788;8.824;2023-09-19T07:22:42;99512.03;;;17.08;63.73
74613;BME280;63119;51.788;8.824;2023-09-19T07:25:07;99513.47;;;17.03;64.65
74613;BME280;63119;51.788;8.824;2023-09-19T07:27:33;99514.69;;;16.82;64.53
74613;BME280;63119;51.788;8.824;2023-09-19T07:29:59;99528.09;;;17.08;64.61
74613;BME280;63119;51.788;8.824;2023-09-19T07:32:24;99526.22;;;17.09;64.70
74613;BME280;63119;51.788;8.824;2023-09-19T07:34:49;99540.97;;;17.13;64.40
74613;BME280;63119;51.788;8.824;2023-09-19T07:37:14;99537.94;;;17.08;64.08
74613;BME280;63119;51.788;8.824;2023-09-19T07:39:40;99541.59;;;17.07;64.89
74613;BME280;63119;51.788;8.824;2023-09-19T07:42:06;99535.16;;;17.17;64.98
74613;BME280;63119;51.788;8.824;2023-09-19T07:44:32;99544.13;;;17.08;64.47
74613;BME280;63119;51.788;8.824;2023-09-19T07:46:57;99541.94;;;17.12;64.24
74613;BME280;63119;51.788;8.824;2023-09-19T07:49:22;99537.88;;;17.25;64.54
74613;BME280;63119;51.788;8.824;2023-09-19T07:51:48;99535.78;;;17.37;64.02
74613;BME280;63119;51.788;8.824;2023-09-19T07:54:13;99543.75;;;17.29;64.34
74613;BME280;63119;51.788;8.824;2023-09-19T07:56:39;99548.34;;;17.62;63.20
74613;BME280;63119;51.788;8.824;2023-09-19T07:59:04;99542.44;;;17.59;63.65
74613;BME280;63119;51.788;8.824;2023-09-19T08:01:30;99542.78;;;17.56;63.77
74613;BME280;63119;51.788;8.824;2023-09-19T08:03:55;99533.75;;;17.57;63.96
74613;BME280;63119;51.788;8.824;2023-09-19T08:06:20;99532.81;;;17.48;63.85
74613;BME280;63119;51.788;8.824;2023-09-19T08:08:46;99531.13;;;17.73;63.05
74613;BME280;63119;51.788;8.824;2023-09-19T08:11:11;99539.44;;;17.95;62.90
74613;BME280;63119;51.788;8.824;2023-09-19T08:13:38;99538.59;;;17.95;62.78
74613;BME280;63119;51.788;8.824;2023-09-19T08:16:08;99543.31;;;18.01;62.13
74613;BME280;63119;51.788;8.824;2023-09-19T08:18:34;99537.16;;;18.09;62.41
74613;BME280;63119;51.788;8.824;2023-09-19T08:20:59;99537.22;;;18.33;61.50
74613;BME280;63119;51.788;8.824;2023-09-19T08:23:25;99543.88;;;18.21;61.99
74613;BME280;63119;51.788;8.824;2023-09-19T08:25:56;99539.34;;;18.13;61.94
74613;BME280;63119;51.788;8.824;2023-09-19T08:28:21;99544.81;;;17.95;62.60
74613;BME280;63119;51.788;8.824;2023-09-19T08:30:49;99538.50;;;18.13;62.82
74613;BME280;63119;51.788;8.824;2023-09-19T08:33:16;99539.66;;;18.18;62.45
74613;BME280;63119;51.788;8.824;2023-09-19T08:35:42;99531.47;;;18.12;62.20
74613;BME280;63119;51.788;8.824;2023-09-19T08:38:07;99533.31;;;18.11;62.25
74613;BME280;63119;51.788;8.824;2023-09-19T08:40:36;99548.41;;;18.28;61.81
74613;BME280;63119;51.788;8.824;2023-09-19T08:43:04;99535.88;;;18.37;61.55
74613;BME280;63119;51.788;8.824;2023-09-19T08:45:32;99534.63;;;18.15;62.50
74613;BME280;63119;51.788;8.824;2023-09-19T08:48:19;99540.56;;;18.35;62.31
74613;BME280;63119;51.788;8.824;2023-09-19T08:51:06;99538.75;;;18.51;62.78
74613;BME280;63119;51.788;8.824;2023-09-19T08:53:51;99551.53;;;18.74;62.04
74613;BME280;63119;51.788;8.824;2023-09-19T08:56:17;99553.69;;;18.62;62.40
74613;BME280;63119;51.788;8.824;2023-09-19T08:58:51;99548.97;;;18.48;62.25
74613;BME280;63119;51.788;8.824;2023-09-19T09:01:20;99560.81;;;18.45;62.09
74613;BME280;63119;51.788;8.824;2023-09-19T09:03:52;99557.81;;;18.40;63.21
74613;BME280;63119;51.788;8.824;2023-09-19T09:06:19;99553.94;;;18.27;63.64
74613;BME280;63119;51.788;8.824;2023-09-19T09:08:46;99564.47;;;18.20;63.62
74613;BME280;63119;51.788;8.824;2023-09-19T09:11:12;99560.63;;;18.23;63.34
74613;BME280;63119;51.788;8.824;2023-09-19T09:13:38;99560.56;;;18.57;62.91
74613;BME280;63119;51.788;8.824;2023-09-19T09:16:07;99559.53;;;18.49;62.52
74613;BME280;63119;51.788;8.824;2023-09-19T09:18:33;99566.41;;;18.52;62.88
74613;BME280;63119;51.788;8.824;2023-09-19T09:20:58;99564.56;;;18.52;62.96
74613;BME280;63119;51.788;8.824;2023-09-19T09:23:24;99571.94;;;18.59;63.63
74613;BME280;63119;51.788;8.824;2023-09-19T09:25:55;99568.28;;;18.68;62.08
74613;BME280;63119;51.788;8.824;2023-09-19T09:28:26;99565.59;;;18.60;62.39
74613;BME280;63119;51.788;8.824;2023-09-19T09:30:54;99572.97;;;18.66;61.54
74613;BME280;63119;51.788;8.824;2023-09-19T09:33:20;99564.78;;;18.75;61.24
74613;BME280;63119;51.788;8.824;2023-09-19T09:38:21;99569.38;;;18.41;61.83
74613;BME280;63119;51.788;8.824;2023-09-19T09:40:48;99565.78;;;18.66;61.82
74613;BME280;63119;51.788;8.824;2023-09-19T09:43:29;99571.97;;;18.75;61.85
74613;BME280;63119;51.788;8.824;2023-09-19T09:46:15;99572.97;;;18.74;61.48
74613;BME280;63119;51.788;8.824;2023-09-19T09:48:57;99580.03;;;18.83;60.22
74613;BME280;63119;51.788;8.824;2023-09-19T09:51:42;99565.59;;;18.68;60.52
74613;BME280;63119;51.788;8.824;2023-09-19T09:54:18;99567.97;;;18.87;59.91
74613;BME280;63119;51.788;8.824;2023-09-19T09:57:06;99564.09;;;19.30;61.77
74613;BME280;63119;51.788;8.824;2023-09-19T09:59:54;99567.59;;;19.06;60.03
74613;BME280;63119;51.788;8.824;2023-09-19T10:02:28;99568.13;;;19.26;59.69
74613;BME280;63119;51.788;8.824;2023-09-19T10:04:57;99570.81;;;19.01;58.79
74613;BME280;63119;51.788;8.824;2023-09-19T10:07:35;99575.50;;;18.99;58.88
74613;BME280;63119;51.788;8.824;2023-09-19T10:10:06;99579.34;;;18.97;58.16
74613;BME280;63119;51.788;8.824;2023-09-19T10:12:46;99567.59;;;19.38;59.14
74613;BME280;63119;51.788;8.824;2023-09-19T10:15:17;99568.28;;;19.16;57.79
74613;BME280;63119;51.788;8.824;2023-09-19T10:17:45;99562.25;;;19.22;56.93
74613;BME280;63119;51.788;8.824;2023-09-19T10:20:17;99556.03;;;19.30;56.84
74613;BME280;63119;51.788;8.824;2023-09-19T10:22:59;99572.56;;;19.74;57.73
74613;BME280;63119;51.788;8.824;2023-09-19T10:25:28;99566.22;;;19.67;55.67
74613;BME280;63119;51.788;8.824;2023-09-19T10:27:54;99558.19;;;19.67;55.52
74613;BME280;63119;51.788;8.824;2023-09-19T10:30:22;99571.63;;;19.50;55.83
74613;BME280;63119;51.788;8.824;2023-09-19T10:32:57;99570.13;;;19.24;55.86
74613;BME280;63119;51.788;8.824;2023-09-19T10:35:23;99559.06;;;19.19;56.67
74613;BME280;63119;51.788;8.824;2023-09-19T10:37:50;99568.63;;;19.13;56.58
74613;BME280;63119;51.788;8.824;2023-09-19T10:40:18;99570.97;;;19.32;56.21
74613;BME280;63119;51.788;8.824;2023-09-19T10:42:45;99566.63;;;19.07;55.73
74613;BME280;63119;51.788;8.824;2023-09-19T10:45:14;99574.81;;;19.30;56.29
74613;BME280;63119;51.788;8.824;2023-09-19T10:47:40;99577.50;;;19.22;56.12
74613;BME280;63119;51.788;8.824;2023-09-19T10:50:06;99573.50;;;19.42;55.35
74613;BME280;63119;51.788;8.824;2023-09-19T10:52:40;99579.03;;;19.48;55.81
74613;BME280;63119;51.788;8.824;2023-09-19T10:55:07;99576.34;;;19.40;54.72
74613;BME280;63119;51.788;8.824;2023-09-19T10:57:35;99575.50;;;19.48;55.32
74613;BME280;63119;51.788;8.824;2023-09-19T11:00:06;99578.13;;;19.64;54.68
74613;BME280;63119;51.788;8.824;2023-09-19T11:05:36;99571.47;;;19.99;53.66
74613;BME280;63119;51.788;8.824;2023-09-19T11:08:09;99585.72;;;20.07;53.07
74613;BME280;63119;51.788;8.824;2023-09-19T11:10:49;99571.78;;;20.12;53.38
74613;BME280;63119;51.788;8.824;2023-09-19T11:13:29;99571.38;;;20.23;52.93
74613;BME280;63119;51.788;8.824;2023-09-19T11:26:41;99568.84;;;19.91;53.33
74613;BME280;63119;51.788;8.824;2023-09-19T11:29:30;99559.41;;;19.95;53.37
74613;BME280;63119;51.788;8.824;2023-09-19T11:31:56;99553.31;;;20.09;53.27
74613;BME280;63119;51.788;8.824;2023-09-19T11:39:40;99549.75;;;20.16;52.26
74613;BME280;63119;51.788;8.824;2023-09-19T11:42:46;99543.81;;;19.90;52.03
74613;BME280;63119;51.788;8.824;2023-09-19T11:48:12;99539.84;;;20.17;52.88
74613;BME280;63119;51.788;8.824;2023-09-19T11:50:42;99537.56;;;20.06;53.08
74613;BME280;63119;51.788;8.824;2023-09-19T11:53:11;99540.88;;;20.08;52.42
74613;BME280;63119;51.788;8.824;2023-09-19T11:55:38;99526.88;;;20.29;52.61
74613;BME280;63119;51.788;8.824;2023-09-19T11:58:03;99531.72;;;20.56;52.42
74613;BME280;63119;51.788;8.824;2023-09-19T12:00:30;99535.41;;;20.32;51.15
74613;BME280;63119;51.788;8.824;2023-09-19T12:02:58;99532.56;;;20.56;50.67
74613;BME280;63119;51.788;8.824;2023-09-19T12:05:30;99534.25;;;20.57;50.46
74613;BME280;63119;51.788;8.824;2023-09-19T12:07:59;99548.06;;;20.54;50.25
74613;BME280;63119;51.788;8.824;2023-09-19T12:10:24;99537.41;;;20.38;51.55
74613;BME280;63119;51.788;8.824;2023-09-19T12:12:50;99536.63;;;20.52;50.54
74613;BME280;63119;51.788;8.824;2023-09-19T12:15:23;99542.84;;;20.53;50.74
74613;BME280;63119;51.788;8.824;2023-09-19T12:17:54;99532.94;;;20.53;50.82
74613;BME280;63119;51.788;8.824;2023-09-19T12:20:19;99519.31;;;20.78;50.60
74613;BME280;63119;51.788;8.824;2023-09-19T12:22:46;99531.78;;;20.70;50.85
74613;BME280;63119;51.788;8.824;2023-09-19T12:25:12;99523.97;;;20.84;50.87
74613;BME280;63119;51.788;8.824;2023-09-19T12:27:48;99528.16;;;20.63;49.92
74613;BME280;63119;51.788;8.824;2023-09-19T12:30:18;99538.94;;;20.55;50.63
74613;BME280;63119;51.788;8.824;2023-09-19T12:32:46;99530.66;;;20.42;50.56
74613;BME280;63119;51.788;8.824;2023-09-19T12:35:29;99531.13;;;20.68;50.30
74613;BME280;63119;51.788;8.824;2023-09-19T12:38:00;99526.78;;;20.45;49.42
74613;BME280;63119;51.788;8.824;2023-09-19T12:40:26;99529.34;;;20.84;49.94
74613;BME280;63119;51.788;8.824;2023-09-19T12:42:54;99519.00;;;20.73;49.94
74613;BME280;63119;51.788;8.824;2023-09-19T12:45:28;99510.28;;;21.08;49.68
74613;BME280;63119;51.788;8.824;2023-09-19T12:48:18;99500.41;;;21.23;49.08
74613;BME280;63119;51.788;8.824;2023-09-19T12:53:32;99502.72;;;20.89;49.66
74613;BME280;63119;51.788;8.824;2023-09-19T12:55:59;99508.38;;;20.79;50.16
74613;BME280;63119;51.788;8.824;2023-09-19T12:58:24;99490.00;;;20.83;50.13
74613;BME280;63119;51.788;8.824;2023-09-19T13:00:50;99498.19;;;20.89;50.29
74613;BME280;63119;51.788;8.824;2023-09-19T13:06:00;99493.19;;;21.01;49.99
74613;BME280;63119;51.788;8.824;2023-09-19T13:08:32;99496.69;;;21.09;49.63
74613;BME280;63119;51.788;8.824;2023-09-19T13:11:09;99500.63;;;21.21;48.89
74613;BME280;63119;51.788;8.824;2023-09-19T13:13:38;99491.50;;;21.22;48.62
74613;BME280;63119;51.788;8.824;2023-09-19T13:16:04;99490.88;;;21.50;48.42
74613;BME280;63119;51.788;8.824;2023-09-19T13:18:41;99489.56;;;21.31;47.90
74613;BME280;63119;51.788;8.824;2023-09-19T13:21:09;99495.34;;;21.57;47.95
74613;BME280;63119;51.788;8.824;2023-09-19T13:23:41;99475.06;;;21.61;47.96
74613;BME280;63119;51.788;8.824;2023-09-19T13:26:07;99478.25;;;21.50;47.71
74613;BME280;63119;51.788;8.824;2023-09-19T13:28:33;99475.81;;;21.55;48.11
74613;BME280;63119;51.788;8.824;2023-09-19T13:30:59;99473.06;;;21.63;47.65
74613;BME280;63119;51.788;8.824;2023-09-19T13:33:24;99480.09;;;21.50;47.92
74613;BME280;63119;51.788;8.824;2023-09-19T13:35:51;99472.66;;;21.37;48.09
74613;BME280;63119;51.788;8.824;2023-09-19T13:38:17;99474.44;;;21.45;48.67
74613;BME280;63119;51.788;8.824;2023-09-19T13:40:43;99485.75;;;21.40;47.90
74613;BME280;63119;51.788;8.824;2023-09-19T13:43:09;99477.31;;;21.43;48.71
74613;BME280;63119;51.788;8.824;2023-09-19T13:45:34;99482.53;;;21.30;48.59